createdAt,value
2022-08-30T00:02:43.834Z,2.20
2022-08-30T00:07:47.177Z,2.10
2022-08-30T00:12:52.075Z,2.00
2022-08-30T00:17:58.208Z,2.50
2022-08-30T00:23:04.259Z,2.20
2022-08-30T00:28:09.819Z,2.00
2022-08-30T00:33:14.004Z,2.33
2022-08-30T00:38:17.030Z,2.40
2022-08-30T00:43:29.089Z,2.10
2022-08-30T00:48:32.337Z,2.00
2022-08-30T00:53:38.421Z,2.10
2022-08-30T00:58:48.132Z,2.10
2022-08-30T01:03:51.287Z,1.80
2022-08-30T01:08:54.128Z,2.10
2022-08-30T01:13:59.037Z,2.00
2022-08-30T01:19:02.580Z,1.90
2022-08-30T01:24:10.109Z,2.00
2022-08-30T01:29:18.567Z,2.00
2022-08-30T01:34:21.617Z,1.80
2022-08-30T01:39:26.026Z,1.60
2022-08-30T01:44:28.844Z,1.90
2022-08-30T01:49:31.782Z,1.90
2022-08-30T01:54:39.581Z,1.87
2022-08-30T01:59:47.531Z,1.50
2022-08-30T02:04:51.759Z,1.88
2022-08-30T02:09:56.834Z,1.60
2022-08-30T02:14:59.651Z,1.63
2022-08-30T02:20:02.764Z,1.60
2022-08-30T02:25:11.219Z,1.60
2022-08-30T02:30:23.957Z,1.70
2022-08-30T02:35:27.388Z,1.52
2022-08-30T02:40:31.991Z,1.55
2022-08-30T02:45:35.106Z,1.70
2022-08-30T02:50:41.503Z,1.80
2022-08-30T02:55:46.600Z,1.90
2022-08-30T03:00:49.516Z,2.03
2022-08-30T03:05:55.369Z,1.90
2022-08-30T03:11:00.129Z,2.00
2022-08-30T03:16:03.310Z,2.00
2022-08-30T03:21:11.614Z,2.00
2022-08-30T03:26:15.978Z,2.00
2022-08-30T03:31:18.813Z,2.30
2022-08-30T03:36:22.116Z,3.70
2022-08-30T03:41:26.286Z,2.05
2022-08-30T03:46:31.831Z,2.03
2022-08-30T03:51:36.574Z,1.97
2022-08-30T03:56:41.004Z,1.80
2022-08-30T04:01:45.733Z,2.20
2022-08-30T04:06:48.782Z,2.17
2022-08-30T04:11:52.931Z,1.90
2022-08-30T04:16:55.731Z,2.10
2022-08-30T04:21:58.574Z,2.00
2022-08-30T04:27:02.949Z,1.97
2022-08-30T04:32:06.030Z,1.90
2022-08-30T04:37:09.902Z,1.90
2022-08-30T04:42:14.268Z,1.90
2022-08-30T04:47:18.301Z,2.00
2022-08-30T04:52:21.354Z,1.73
2022-08-30T04:57:26.560Z,1.80
2022-08-30T05:02:29.462Z,2.10
2022-08-30T05:07:33.432Z,1.90
2022-08-30T05:12:37.619Z,2.08
2022-08-30T05:17:41.228Z,1.90
2022-08-30T05:22:49.951Z,2.00
2022-08-30T05:27:58.195Z,1.90
2022-08-30T05:33:00.991Z,1.90
2022-08-30T05:38:03.750Z,2.05
2022-08-30T05:43:08.178Z,1.80
2022-08-30T05:48:13.113Z,1.60
2022-08-30T05:53:15.967Z,1.80
2022-08-30T05:58:20.108Z,1.67
2022-08-30T06:03:23.221Z,1.60
2022-08-30T06:08:26.081Z,1.80
2022-08-30T06:13:30.242Z,2.08
2022-08-30T06:18:33.065Z,1.70
2022-08-30T06:23:36.257Z,1.80
2022-08-30T06:28:40.536Z,1.58
2022-08-30T06:33:44.726Z,1.60
2022-08-30T06:38:52.044Z,1.60
2022-08-30T06:44:03.893Z,1.73
2022-08-30T06:49:08.564Z,1.73
2022-08-30T06:54:13.093Z,1.60
2022-08-30T06:59:17.901Z,1.60
2022-08-30T07:04:20.708Z,1.52
2022-08-30T07:09:23.609Z,1.50
2022-08-30T07:14:27.786Z,1.40
2022-08-30T07:19:30.605Z,1.40
2022-08-30T07:24:33.401Z,1.38
2022-08-30T07:29:37.583Z,1.40
2022-08-30T07:34:40.392Z,1.40
2022-08-30T07:39:47.572Z,1.85
2022-08-30T07:44:56.515Z,1.10
2022-08-30T07:50:00.957Z,1.30
2022-08-30T07:55:05.289Z,1.27
2022-08-30T08:00:11.338Z,1.63
2022-08-30T08:05:17.639Z,1.20
2022-08-30T08:10:21.787Z,1.10
2022-08-30T08:15:26.484Z,1.30
2022-08-30T08:20:29.357Z,1.07
2022-08-30T08:25:32.427Z,1.20
2022-08-30T08:30:38.848Z,1.45
2022-08-30T08:35:41.679Z,1.20
2022-08-30T08:40:55.481Z,1.10
2022-08-30T08:46:05.175Z,1.40
2022-08-30T08:51:28.852Z,1.20
2022-08-30T08:56:32.209Z,1.20
2022-08-30T09:01:38.500Z,1.15
2022-08-30T09:06:53.399Z,1.02
2022-08-30T09:11:56.440Z,1.30
2022-08-30T09:17:03.525Z,1.10
2022-08-30T09:22:15.147Z,1.00
2022-08-30T09:27:22.124Z,1.23
2022-08-30T09:32:31.922Z,1.00
2022-08-30T09:37:38.956Z,1.10
2022-08-30T09:42:42.627Z,1.88
2022-08-30T09:47:46.873Z,1.60
2022-08-30T09:53:15.815Z,1.05
2022-08-30T09:58:42.687Z,1.20
2022-08-30T10:03:55.855Z,1.00
2022-08-30T10:09:07.674Z,1.03
2022-08-30T10:14:40.157Z,1.15
2022-08-30T10:19:59.204Z,1.20
2022-08-30T10:25:06.515Z,0.90
2022-08-30T10:30:14.332Z,1.20
2022-08-30T10:35:21.771Z,1.20
2022-08-30T10:40:51.070Z,1.10
2022-08-30T10:45:59.024Z,1.10
2022-08-30T10:51:10.819Z,1.10
2022-08-30T10:56:20.517Z,1.13
2022-08-30T11:01:37.767Z,1.40
2022-08-30T11:06:59.302Z,1.15
2022-08-30T11:12:22.646Z,1.00
2022-08-30T11:17:32.238Z,1.10
2022-08-30T11:22:39.370Z,1.10
2022-08-30T11:27:49.407Z,1.00
2022-08-30T11:33:03.316Z,1.10
2022-08-30T11:38:21.851Z,1.20
2022-08-30T11:43:51.580Z,1.05
2022-08-30T11:49:01.976Z,1.10
2022-08-30T11:54:17.262Z,1.20
2022-08-30T11:59:30.860Z,1.02
2022-08-30T12:04:45.394Z,0.98
2022-08-30T12:10:06.262Z,0.90
2022-08-30T12:15:48.020Z,1.00
2022-08-30T12:20:51.001Z,0.88
2022-08-30T12:26:11.123Z,0.90
2022-08-30T12:31:17.562Z,1.08
2022-08-30T12:36:34.926Z,0.80
2022-08-30T12:41:43.868Z,0.80
2022-08-30T12:46:49.417Z,0.90
2022-08-30T12:51:52.299Z,0.80
2022-08-30T12:57:18.963Z,0.80
2022-08-30T13:02:26.890Z,0.80
2022-08-30T13:07:33.402Z,0.90
2022-08-30T13:12:38.436Z,0.70
2022-08-30T13:17:41.260Z,1.00
2022-08-30T13:23:03.182Z,0.80
2022-08-30T13:28:08.487Z,0.70
2022-08-30T13:33:11.646Z,0.70
2022-08-30T13:38:14.257Z,0.50
2022-08-30T13:43:18.520Z,0.60
2022-08-30T13:48:24.876Z,0.60
2022-08-30T13:58:52.228Z,0.60
2022-08-30T14:09:19.048Z,0.50
2022-08-30T14:14:41.420Z,0.40
2022-08-30T14:19:46.231Z,0.60
2022-08-30T14:24:54.147Z,0.60
2022-08-30T14:29:59.923Z,0.70
2022-08-30T14:35:02.753Z,0.65
2022-08-30T14:40:07.734Z,0.45
2022-08-30T14:45:13.181Z,0.60
2022-08-30T14:50:16.391Z,0.60
2022-08-30T14:55:19.480Z,0.90
2022-08-30T15:00:24.055Z,1.10
2022-08-30T15:05:28.618Z,0.60
2022-08-30T15:10:31.482Z,0.50
2022-08-30T15:15:36.632Z,0.50
2022-08-30T15:20:47.435Z,0.60
2022-08-30T15:25:50.259Z,0.65
2022-08-30T15:30:55.506Z,0.60
2022-08-30T15:36:01.486Z,0.50
2022-08-30T15:41:09.180Z,0.50
2022-08-30T15:46:22.907Z,0.50
2022-08-30T15:51:26.347Z,0.67
2022-08-30T15:56:30.685Z,0.50
2022-08-30T16:01:41.506Z,0.50
2022-08-30T16:06:46.532Z,0.63
2022-08-30T16:11:49.555Z,0.57
2022-08-30T16:16:54.329Z,0.60
2022-08-30T16:21:57.575Z,0.70
2022-08-30T16:27:00.441Z,0.70
2022-08-30T16:32:05.030Z,0.82
2022-08-30T16:37:07.846Z,0.60
2022-08-30T16:42:11.325Z,0.70
2022-08-30T16:47:15.572Z,0.70
2022-08-30T16:52:18.586Z,0.70
2022-08-30T16:57:22.225Z,0.90
2022-08-30T17:02:26.574Z,0.70
2022-08-30T17:07:30.659Z,0.93
2022-08-30T17:12:33.614Z,0.70
2022-08-30T17:17:38.128Z,0.80
2022-08-30T17:22:46.175Z,0.75
2022-08-30T17:27:49.230Z,0.80
2022-08-30T17:32:54.573Z,0.70
2022-08-30T17:37:58.368Z,0.70
2022-08-30T17:43:01.365Z,0.80
2022-08-30T17:48:07.049Z,0.70
2022-08-30T17:53:09.884Z,0.70
2022-08-30T17:58:12.884Z,0.90
2022-08-30T18:03:17.445Z,0.77
2022-08-30T18:08:20.306Z,0.90
2022-08-30T18:13:23.531Z,2.58
2022-08-30T18:18:28.547Z,3.13
2022-08-30T18:23:31.952Z,1.70
2022-08-30T18:28:35.347Z,1.00
2022-08-30T18:33:39.643Z,0.70
2022-08-30T18:38:42.862Z,0.80
2022-08-30T18:43:46.085Z,0.93
2022-08-30T18:48:51.214Z,2.33
2022-08-30T18:53:56.154Z,0.73
2022-08-30T18:58:59.032Z,0.77
2022-08-30T19:04:04.816Z,0.85
2022-08-30T19:09:08.970Z,0.80
2022-08-30T19:14:12.378Z,0.83
2022-08-30T19:19:18.772Z,0.90
2022-08-30T19:24:21.735Z,0.70
2022-08-30T19:29:24.578Z,0.90
2022-08-30T19:34:30.516Z,0.90
2022-08-30T19:39:33.368Z,1.00
2022-08-30T19:44:36.698Z,1.00
2022-08-30T19:49:41.094Z,0.80
2022-08-30T19:54:43.933Z,0.80
2022-08-30T19:59:46.784Z,0.80
2022-08-30T20:04:51.487Z,0.80
2022-08-30T20:09:54.446Z,0.80
2022-08-30T20:14:57.270Z,0.70
2022-08-30T20:20:04.408Z,0.90
2022-08-30T20:25:10.824Z,0.70
2022-08-30T20:30:15.278Z,0.70
2022-08-30T20:35:19.892Z,0.77
2022-08-30T20:40:22.962Z,0.57
2022-08-30T20:45:25.830Z,0.80
2022-08-30T20:50:35.211Z,0.60
2022-08-30T20:55:41.565Z,0.67
2022-08-30T21:00:45.662Z,0.63
2022-08-30T21:05:51.148Z,0.60
2022-08-30T21:10:54.565Z,0.60
2022-08-30T21:16:03.633Z,0.80
2022-08-30T21:21:12.610Z,0.60
2022-08-30T21:26:18.078Z,0.70
2022-08-30T21:31:22.629Z,0.80
2022-08-30T21:36:46.549Z,0.90
2022-08-30T21:41:51.169Z,0.80
2022-08-30T21:46:56.200Z,0.80
2022-08-30T21:52:00.512Z,0.80
2022-08-30T21:57:05.247Z,0.77
2022-08-30T22:02:09.148Z,0.60
2022-08-30T22:07:13.468Z,0.70
2022-08-30T22:12:16.385Z,1.03
2022-08-30T22:17:19.281Z,1.00
2022-08-30T22:22:23.409Z,0.93
2022-08-30T22:27:26.232Z,0.90
2022-08-30T22:32:29.083Z,0.97
2022-08-30T22:37:34.022Z,1.00
2022-08-30T22:42:37.213Z,0.90
2022-08-30T22:47:40.065Z,0.77
2022-08-30T22:52:44.324Z,0.80
2022-08-30T22:57:47.126Z,1.00
2022-08-30T23:02:52.597Z,1.10
2022-08-30T23:07:56.919Z,1.00
2022-08-30T23:13:00.534Z,1.30
2022-08-30T23:18:03.479Z,0.87
2022-08-30T23:23:06.530Z,0.80
2022-08-30T23:28:26.639Z,1.13
2022-08-30T23:33:47.217Z,0.88
2022-08-30T23:39:08.537Z,1.20
2022-08-30T23:44:29.009Z,0.90
2022-08-30T23:49:49.321Z,0.70
2022-08-30T23:55:11.036Z,0.90
